createdAt,value
2023-02-08T00:00:51.072Z,21.00
2023-02-08T00:05:44.114Z,20.90
2023-02-08T00:10:39.616Z,20.40
2023-02-08T00:15:36.044Z,21.00
2023-02-08T00:20:35.298Z,21.90
2023-02-08T00:25:41.404Z,20.00
2023-02-08T00:30:37.796Z,19.00
2023-02-08T00:35:42.692Z,19.50
2023-02-08T00:40:38.239Z,19.30
2023-02-08T00:45:34.294Z,19.70
2023-02-08T00:50:30.457Z,17.70
2023-02-08T00:55:41.060Z,19.60
2023-02-08T01:00:46.899Z,18.80
2023-02-08T01:11:34.213Z,20.00
2023-02-08T01:16:48.659Z,19.40
2023-02-08T01:21:55.033Z,20.30
2023-02-08T01:26:48.678Z,19.90
2023-02-08T01:31:46.205Z,21.40
2023-02-08T01:37:01.941Z,19.90
2023-02-08T01:42:29.223Z,19.40
2023-02-08T01:47:25.732Z,20.30
2023-02-08T01:52:45.168Z,19.00
2023-02-08T01:57:46.840Z,19.90
2023-02-08T02:02:53.585Z,20.70
2023-02-08T02:08:00.943Z,19.50
2023-02-08T02:13:10.094Z,19.90
2023-02-08T02:18:28.796Z,20.00
2023-02-08T02:23:59.618Z,22.20
2023-02-08T02:29:18.102Z,21.00
2023-02-08T02:34:56.755Z,20.80
2023-02-08T02:40:18.374Z,19.60
2023-02-08T02:45:56.225Z,19.90
2023-02-08T02:51:32.054Z,21.20
2023-02-08T02:56:49.301Z,20.50
2023-02-08T03:02:00.546Z,21.40
2023-02-08T03:13:35.938Z,18.80
2023-02-08T03:19:15.975Z,20.50
2023-02-08T03:24:50.863Z,19.40
2023-02-08T03:30:11.474Z,19.90
2023-02-08T03:35:16.678Z,19.80
2023-02-08T03:40:29.202Z,20.80
2023-02-08T03:45:50.802Z,20.40
2023-02-08T03:51:11.992Z,20.60
2023-02-08T04:07:25.687Z,21.00
2023-02-08T04:12:36.255Z,19.60
2023-02-08T04:17:32.447Z,21.00
2023-02-08T04:22:44.332Z,18.80
2023-02-08T04:27:48.833Z,21.30
2023-02-08T04:33:12.843Z,20.00
2023-02-08T04:38:14.290Z,20.40
2023-02-08T04:43:08.491Z,21.10
2023-02-08T04:48:07.072Z,20.00
2023-02-08T04:52:59.933Z,19.30
2023-02-08T04:57:53.069Z,21.00
2023-02-08T05:02:46.701Z,20.80
2023-02-08T05:07:39.470Z,19.70
2023-02-08T05:12:32.481Z,19.60
2023-02-08T05:17:25.303Z,20.40
2023-02-08T05:22:18.130Z,20.00
2023-02-08T05:27:11.026Z,20.80
2023-02-08T05:32:05.423Z,21.50
2023-02-08T05:36:58.385Z,20.30
2023-02-08T05:41:51.250Z,19.80
2023-02-08T05:46:45.191Z,21.40
2023-02-08T05:51:37.980Z,20.70
2023-02-08T05:56:31.643Z,19.80
2023-02-08T06:01:24.445Z,20.20
2023-02-08T06:06:17.221Z,19.20
2023-02-08T06:11:10.166Z,20.60
2023-02-08T06:16:12.239Z,19.20
2023-02-08T06:21:05.545Z,20.00
2023-02-08T06:25:58.508Z,18.40
2023-02-08T06:30:52.634Z,18.30
2023-02-08T06:35:48.928Z,18.40
2023-02-08T06:40:42.554Z,17.50
2023-02-08T06:45:35.667Z,18.20
2023-02-08T06:50:28.820Z,19.10
2023-02-08T06:55:21.636Z,19.10
2023-02-08T07:00:15.131Z,17.60
2023-02-08T07:05:09.550Z,17.80
2023-02-08T07:10:02.764Z,14.30
2023-02-08T07:14:55.537Z,14.00
2023-02-08T07:19:48.341Z,13.70
2023-02-08T07:24:42.726Z,14.10
2023-02-08T07:29:37.932Z,12.70
2023-02-08T07:34:32.169Z,11.20
2023-02-08T07:39:25.355Z,11.30
2023-02-08T07:44:18.216Z,12.40
2023-02-08T07:49:11.412Z,13.60
2023-02-08T07:54:04.796Z,11.00
2023-02-08T07:58:57.725Z,12.70
2023-02-08T08:03:52.055Z,10.70
2023-02-08T08:08:47.630Z,9.80
2023-02-08T08:13:40.539Z,9.50
2023-02-08T08:18:33.365Z,9.00
2023-02-08T08:23:28.484Z,8.80
2023-02-08T08:28:25.015Z,8.60
2023-02-08T08:33:17.961Z,8.50
2023-02-08T08:38:11.335Z,9.20
2023-02-08T08:43:04.454Z,9.10
2023-02-08T08:47:57.340Z,9.60
2023-02-08T08:52:52.921Z,9.10
2023-02-08T08:57:45.821Z,7.60
2023-02-08T09:02:39.839Z,7.80
2023-02-08T09:07:36.457Z,7.00
2023-02-08T09:12:30.129Z,7.30
2023-02-08T09:17:23.139Z,7.00
2023-02-08T09:22:18.880Z,8.40
2023-02-08T09:27:11.831Z,9.20
2023-02-08T09:32:05.373Z,7.90
2023-02-08T09:36:58.273Z,7.70
2023-02-08T09:42:08.194Z,7.70
2023-02-08T09:47:21.495Z,7.20
2023-02-08T09:52:22.494Z,8.60
2023-02-08T09:57:19.616Z,7.90
2023-02-08T10:02:45.128Z,7.20
2023-02-08T10:07:38.449Z,8.00
2023-02-08T10:12:55.952Z,6.20
2023-02-08T10:18:06.408Z,6.40
2023-02-08T10:23:05.066Z,4.70
2023-02-08T10:28:32.069Z,5.10
2023-02-08T10:33:43.945Z,2.50
2023-02-08T10:38:46.887Z,3.00
2023-02-08T10:43:47.472Z,2.80
2023-02-08T10:49:01.977Z,2.60
2023-02-08T10:53:55.366Z,3.40
2023-02-08T10:58:48.256Z,3.40
2023-02-08T11:04:11.395Z,3.00
2023-02-08T11:09:06.980Z,4.20
2023-02-08T11:14:18.594Z,4.00
2023-02-08T11:19:26.204Z,3.80
2023-02-08T11:24:31.004Z,3.70
2023-02-08T11:29:27.267Z,4.10
2023-02-08T11:34:26.344Z,4.00
2023-02-08T11:39:40.861Z,3.60
2023-02-08T11:44:44.828Z,3.20
2023-02-08T11:49:43.288Z,3.40
2023-02-08T11:54:42.895Z,3.60
2023-02-08T11:59:35.789Z,3.40
2023-02-08T12:04:28.608Z,3.20
2023-02-08T12:09:48.793Z,3.30
2023-02-08T12:15:01.993Z,3.50
2023-02-08T12:20:13.616Z,3.10
2023-02-08T12:25:42.561Z,3.30
2023-02-08T12:30:43.719Z,3.10
2023-02-08T12:36:18.341Z,3.60
2023-02-08T12:41:30.237Z,2.90
2023-02-08T12:46:42.474Z,3.80
2023-02-08T12:52:01.799Z,3.00
2023-02-08T12:57:02.450Z,3.10
2023-02-08T13:02:01.937Z,3.20
2023-02-08T13:06:59.896Z,3.30
2023-02-08T13:12:06.367Z,3.60
2023-02-08T13:17:05.982Z,3.50
2023-02-08T13:22:00.944Z,4.30
2023-02-08T13:26:54.992Z,3.60
2023-02-08T13:32:00.328Z,3.80
2023-02-08T13:37:16.582Z,4.00
2023-02-08T13:42:48.553Z,4.20
2023-02-08T13:52:48.028Z,4.50
2023-02-08T13:57:56.699Z,4.10
2023-02-08T14:08:45.844Z,4.70
2023-02-08T14:13:49.114Z,4.90
2023-02-08T14:18:53.067Z,5.50
2023-02-08T14:23:46.000Z,4.80
2023-02-08T14:28:45.024Z,6.30
2023-02-08T14:33:41.939Z,5.80
2023-02-08T14:38:52.103Z,5.60
2023-02-08T14:43:48.857Z,5.00
2023-02-08T14:48:51.018Z,4.40
2023-02-08T14:53:45.118Z,4.40
2023-02-08T14:58:42.633Z,4.20
2023-02-08T15:03:36.362Z,3.90
2023-02-08T15:08:29.180Z,5.00
2023-02-08T15:13:25.336Z,5.00
2023-02-08T15:18:25.950Z,4.40
2023-02-08T15:23:24.455Z,5.00
2023-02-08T15:28:21.929Z,5.40
2023-02-08T15:33:18.049Z,4.50
2023-02-08T15:38:20.316Z,5.60
2023-02-08T15:43:14.544Z,5.90
2023-02-08T15:48:08.720Z,6.80
2023-02-08T15:53:07.444Z,6.20
2023-02-08T15:58:07.207Z,6.30
2023-02-08T16:03:19.047Z,6.90
2023-02-08T16:08:23.974Z,6.50
2023-02-08T16:13:40.168Z,6.60
2023-02-08T16:18:46.309Z,8.60
2023-02-08T16:23:40.398Z,8.50
2023-02-08T16:28:34.922Z,8.30
2023-02-08T16:33:28.560Z,9.40
2023-02-08T16:38:24.283Z,9.90
2023-02-08T16:43:19.028Z,10.30
2023-02-08T16:48:35.061Z,14.10
2023-02-08T16:53:41.414Z,10.10
2023-02-08T16:58:34.802Z,11.80
2023-02-08T17:03:27.954Z,11.00
2023-02-08T17:08:22.458Z,11.90
2023-02-08T17:13:21.065Z,10.60
2023-02-08T17:18:14.676Z,10.90
2023-02-08T17:23:07.956Z,10.90
2023-02-08T17:28:03.786Z,9.30
2023-02-08T17:32:57.457Z,9.60
2023-02-08T17:37:53.162Z,10.70
2023-02-08T17:42:47.647Z,9.90
2023-02-08T17:47:42.690Z,10.60
2023-02-08T17:52:37.174Z,10.00
2023-02-08T17:57:35.384Z,17.30
2023-02-08T18:02:28.361Z,12.30
2023-02-08T18:07:21.691Z,12.90
2023-02-08T18:12:14.497Z,19.40
2023-02-08T18:17:07.335Z,13.70
2023-02-08T18:22:03.744Z,15.60
2023-02-08T18:26:58.341Z,15.80
2023-02-08T18:31:53.049Z,23.80
2023-02-08T18:36:46.777Z,23.20
2023-02-08T18:41:39.570Z,24.20
2023-02-08T18:46:33.168Z,23.90
2023-02-08T18:51:27.800Z,20.60
2023-02-08T18:56:24.335Z,18.60
2023-02-08T19:01:21.032Z,19.10
2023-02-08T19:06:18.248Z,17.80
2023-02-08T19:11:19.786Z,18.50
2023-02-08T19:16:13.895Z,21.10
2023-02-08T19:21:13.029Z,21.20
2023-02-08T19:26:09.026Z,21.30
2023-02-08T19:31:11.028Z,21.00
2023-02-08T19:36:11.943Z,22.30
2023-02-08T19:41:06.144Z,22.50
2023-02-08T19:46:00.173Z,23.60
2023-02-08T19:50:58.458Z,19.70
2023-02-08T19:56:03.804Z,18.70
2023-02-08T20:00:56.767Z,19.90
2023-02-08T20:05:51.076Z,19.10
2023-02-08T20:10:47.177Z,20.10
2023-02-08T20:15:42.393Z,18.40
2023-02-08T20:20:37.001Z,19.50
2023-02-08T20:25:30.681Z,20.30
2023-02-08T20:30:25.278Z,20.60
2023-02-08T20:35:18.836Z,20.70
2023-02-08T20:40:13.283Z,21.00
2023-02-08T20:45:07.350Z,20.30
2023-02-08T20:50:03.161Z,21.00
2023-02-08T20:55:03.136Z,17.90
2023-02-08T20:59:56.277Z,20.00
2023-02-08T21:04:49.686Z,18.80
2023-02-08T21:09:43.436Z,19.10
2023-02-08T21:14:36.676Z,20.80
2023-02-08T21:19:31.254Z,22.40
2023-02-08T21:24:25.255Z,24.30
2023-02-08T21:29:18.100Z,23.80
2023-02-08T21:34:12.972Z,24.30
2023-02-08T21:39:05.808Z,23.60
2023-02-08T21:44:00.765Z,21.10
2023-02-08T21:49:13.431Z,22.00
2023-02-08T21:54:24.513Z,20.70
2023-02-08T21:59:17.314Z,20.40
2023-02-08T22:04:10.117Z,21.20
2023-02-08T22:09:02.965Z,18.30
2023-02-08T22:13:55.762Z,19.00
2023-02-08T22:18:48.583Z,21.00
2023-02-08T22:23:41.389Z,18.60
2023-02-08T22:28:34.282Z,18.90
2023-02-08T22:33:27.143Z,20.00
2023-02-08T22:38:19.988Z,20.70
2023-02-08T22:43:12.775Z,18.80
2023-02-08T22:48:06.798Z,18.40
2023-02-08T22:52:59.745Z,19.00
2023-02-08T22:57:52.544Z,20.30
2023-02-08T23:02:45.843Z,18.60
2023-02-08T23:07:39.309Z,19.70
2023-02-08T23:12:32.305Z,18.40
2023-02-08T23:17:25.201Z,19.30
2023-02-08T23:22:18.000Z,18.70
2023-02-08T23:27:14.822Z,21.80
2023-02-08T23:32:07.693Z,19.40
2023-02-08T23:37:00.535Z,20.40
2023-02-08T23:41:57.244Z,19.10
2023-02-08T23:46:50.114Z,21.60
2023-02-08T23:51:45.719Z,23.40
2023-02-08T23:56:38.579Z,22.50
